Time;durP1;ratioP1;P1;durP2;ratioP2;P2;SDS_P1;SDS_P2;PMS_P1;PMS_P2;Temp;Humidity;BMP_temperature;BMP_pressure;BME280_temperature;BME280_humidity;BME280_pressure;Samples;Min_cycle;Max_cycle;Signal;HPM_P1;HPM_P2
2022/01/26 00:07:24;;;;;;;23.95;14.30;;;3.70;78.90;;;2.57;65.32;96006.47;4677932;30;20217;-87
2022/01/26 00:09:52;;;;;;;24.33;14.98;;;3.60;78.90;;;2.59;65.45;96008.94;4698986;30;20252;-87
2022/01/26 00:12:20;;;;;;;21.10;13.77;;;3.70;79.00;;;2.55;65.62;96001.44;4683611;30;20260;-87
2022/01/26 00:14:48;;;;;;;23.25;14.68;;;3.60;79.00;;;2.62;65.49;96001.78;4697947;30;20414;-87
2022/01/26 00:17:16;;;;;;;21.30;13.00;;;3.70;79.00;;;2.65;65.54;96008.47;4684162;30;20313;-88
2022/01/26 00:20:00;;;;;;;26.75;14.75;;;3.60;79.00;;;2.63;65.34;96000.03;4669369;30;20247;-88
2022/01/26 00:27:54;;;;;;;25.95;16.42;;;3.70;79.00;;;2.68;65.52;95990.13;4698571;30;20279;-87
2022/01/26 00:38:48;;;;;;;25.50;15.07;;;3.80;78.80;;;2.57;65.02;95993.53;4701534;30;20269;-88
2022/01/26 00:41:31;;;;;;;23.38;14.20;;;3.70;78.70;;;2.64;65.11;95999.09;4687238;30;20243;-88
2022/01/26 00:44:00;;;;;;;24.75;13.93;;;3.70;78.60;;;2.62;65.10;95996.59;4688097;30;20237;-89
2022/01/26 00:46:28;;;;;;;21.30;13.52;;;3.80;78.70;;;2.66;65.23;96010.13;4672890;30;20247;-88
2022/01/26 00:48:57;;;;;;;20.45;13.07;;;3.70;78.60;;;2.65;64.88;96009.31;4658831;30;20302;-88
2022/01/26 00:51:24;;;;;;;22.20;13.98;;;3.70;78.60;;;2.59;65.05;96006.34;4672873;30;20212;-87
2022/01/26 00:54:03;;;;;;;21.42;13.75;;;3.70;78.60;;;2.62;65.00;96004.38;4672691;30;20241;-88
2022/01/26 00:56:31;;;;;;;21.58;13.88;;;3.70;78.60;;;2.49;65.06;95994.13;4687460;30;20656;-87
2022/01/26 00:59:01;;;;;;;20.52;12.55;;;3.70;78.60;;;2.61;65.11;96007.06;4686749;30;20295;-88
2022/01/26 01:01:31;;;;;;;22.80;13.05;;;3.70;78.60;;;2.50;64.95;95993.19;4687242;30;20220;-87
2022/01/26 01:03:59;;;;;;;19.45;12.65;;;3.70;78.80;;;2.61;65.19;96010.47;4672377;30;20603;-87
2022/01/26 01:06:30;;;;;;;23.58;13.82;;;3.60;78.60;;;2.52;64.89;96004.22;4686990;30;20719;-87
2022/01/26 01:08:59;;;;;;;21.38;13.45;;;3.60;78.80;;;2.49;65.15;95994.13;4700958;30;20244;-88
2022/01/26 01:11:27;;;;;;;19.92;13.07;;;3.60;78.60;;;2.51;65.06;95988.81;4658724;30;20205;-87
2022/01/26 01:13:56;;;;;;;23.35;13.43;;;3.60;78.70;;;2.51;64.93;95987.03;4686569;30;20299;-87
2022/01/26 01:16:25;;;;;;;18.92;12.63;;;3.70;78.70;;;2.60;65.24;96000.25;4687212;30;20228;-87
2022/01/26 01:29:58;;;;;;;20.88;13.27;;;3.70;78.80;;;2.59;64.92;95996.84;4685440;30;20235;-88
2022/01/26 01:32:37;;;;;;;22.25;13.98;;;3.70;78.70;;;2.50;64.96;95987.16;4694775;30;20724;-88
2022/01/26 01:35:09;;;;;;;19.83;12.55;;;3.60;78.50;;;2.48;65.02;95989.88;4672267;30;20255;-87
2022/01/26 01:37:37;;;;;;;22.75;14.07;;;3.60;78.50;;;2.50;65.02;96000.09;4699781;30;20303;-87
2022/01/26 01:40:06;;;;;;;23.00;14.45;;;3.60;78.50;;;2.43;64.96;95992.00;4671890;30;20241;-87
2022/01/26 01:42:34;;;;;;;21.20;13.98;;;3.60;78.50;;;2.44;64.99;95995.38;4685635;30;20225;-88
2022/01/26 01:45:02;;;;;;;19.90;13.38;;;3.60;78.50;;;2.41;65.29;95988.69;4681875;30;20237;-87
2022/01/26 01:47:30;;;;;;;22.55;13.80;;;3.60;78.50;;;2.50;64.95;96000.09;4654451;30;20217;-87
2022/01/26 01:49:58;;;;;;;22.33;14.82;;;3.60;78.60;;;2.50;65.10;95995.78;4653913;30;20229;-88
2022/01/26 01:52:27;;;;;;;19.95;13.07;;;3.50;78.60;;;2.51;65.29;95994.81;4654564;30;20252;-87
2022/01/26 01:55:03;;;;;;;24.70;14.40;;;3.60;78.70;;;2.45;65.25;95982.31;4670412;30;20243;-88
2022/01/26 01:57:31;;;;;;;23.00;14.55;;;3.50;78.60;;;2.51;65.21;95984.44;4685280;30;20300;-87
2022/01/26 01:59:59;;;;;;;22.50;14.07;;;3.60;78.60;;;2.47;64.94;95979.63;4685313;30;20233;-88
2022/01/26 02:02:28;;;;;;;23.10;14.52;;;3.50;78.50;;;2.49;65.16;95980.31;4685360;30;20220;-88
2022/01/26 02:04:56;;;;;;;26.55;15.43;;;3.60;78.60;;;2.43;65.39;95981.63;4670803;30;20715;-88
2022/01/26 02:07:23;;;;;;;27.92;15.65;;;3.60;78.60;;;2.49;65.37;95986.34;4657228;30;20225;-87
2022/01/26 02:09:51;;;;;;;23.75;14.65;;;3.60;78.70;;;2.43;64.97;95973.03;4685348;30;20236;-86
2022/01/26 02:12:23;;;;;;;22.88;14.80;;;3.50;78.70;;;2.44;65.24;95975.53;4670382;30;20229;-87
2022/01/26 02:15:02;;;;;;;21.00;13.73;;;3.50;78.60;;;2.44;64.90;95972.94;4683772;30;20327;-87
2022/01/26 02:18:04;;;;;;;18.98;12.85;;;3.60;78.70;;;2.42;64.87;95969.63;4685147;30;20251;-88
2022/01/26 02:51:32;;;;;;;20.35;13.77;;;3.50;78.70;;;2.42;65.35;95959.25;4685264;30;20217;-88
2022/01/26 02:59:47;;;;;;;23.85;14.20;;;3.50;78.70;;;2.37;65.38;95949.25;4699968;30;20236;-88
2022/01/26 03:05:00;;;;;;;21.60;14.45;;;3.50;78.70;;;2.36;65.08;95950.19;4683856;30;20228;-88
2022/01/26 03:07:45;;;;;;;24.00;15.93;;;3.50;78.90;;;2.39;65.13;95949.97;4685398;30;20220;-88
2022/01/26 03:10:30;;;;;;;22.58;13.82;;;3.50;78.80;;;2.44;65.49;95957.38;4685532;30;20301;-88
2022/01/26 03:13:08;;;;;;;23.23;13.43;;;3.50;78.70;;;2.37;65.21;95951.84;4684008;30;20236;-88
2022/01/26 03:15:47;;;;;;;23.20;14.68;;;3.50;78.70;;;2.40;65.37;95959.38;4671894;30;20241;-88
2022/01/26 03:21:06;;;;;;;19.83;13.63;;;3.60;78.80;;;2.35;65.04;95956.28;4686867;30;20221;-88
2022/01/26 03:34:17;;;;;;;23.70;15.00;;;3.40;78.60;;;2.37;65.28;95951.03;4684990;30;20330;-88
2022/01/26 03:39:19;;;;;;;24.30;14.90;;;3.50;78.60;;;2.40;65.21;95951.63;4684395;30;20237;-88
2022/01/26 03:44:16;;;;;;;21.27;13.20;;;3.50;78.60;;;2.40;65.29;95959.38;4684544;30;20296;-88
2022/01/26 03:46:46;;;;;;;21.52;13.38;;;3.50;78.60;;;2.38;65.02;95957.81;4683988;30;20653;-89
2022/01/26 03:49:14;;;;;;;21.08;12.73;;;3.50;78.60;;;2.30;64.96;95944.66;4683436;30;20243;-87
2022/01/26 03:51:43;;;;;;;18.30;10.95;;;3.50;78.50;;;2.37;64.81;95944.06;4684209;30;20243;-88
2022/01/26 03:54:11;;;;;;;15.75;10.48;;;3.50;78.60;;;2.27;64.84;95925.00;4684367;30;20673;-88
2022/01/26 03:56:39;;;;;;;20.42;11.25;;;3.50;78.50;;;2.34;65.04;95933.94;4698414;30;20217;-87
2022/01/26 03:59:08;;;;;;;19.10;12.55;;;3.50;78.50;;;2.28;64.73;95925.81;4698761;30;20233;-87
2022/01/26 04:01:36;;;;;;;19.67;11.77;;;3.50;78.50;;;2.33;65.02;95931.47;4688628;30;20217;-88
2022/01/26 04:04:06;;;;;;;19.35;12.88;;;3.50;78.50;;;2.29;65.29;95930.88;4699396;30;20272;-88
2022/01/26 04:06:35;;;;;;;17.77;11.80;;;3.40;78.50;;;2.34;65.28;95940.88;4673891;30;20217;-88
2022/01/26 04:09:09;;;;;;;16.92;11.38;;;3.50;78.60;;;2.30;65.09;95926.53;4688114;30;20571;-87
2022/01/26 04:11:42;;;;;;;18.30;12.15;;;3.40;78.50;;;2.26;65.13;95925.94;4687628;30;20326;-87
2022/01/26 04:14:15;;;;;;;19.48;11.93;;;3.40;78.50;;;2.27;65.48;95925.00;4701552;30;20245;-88
2022/01/26 04:16:43;;;;;;;21.40;12.13;;;3.40;78.50;;;2.29;64.94;95914.53;4687833;30;20216;-88
2022/01/26 04:19:11;;;;;;;21.05;12.40;;;3.40;78.50;;;2.31;65.08;95928.19;4687721;30;20236;-86
2022/01/26 04:24:36;;;;;;;21.33;12.80;;;3.40;78.60;;;2.31;65.48;95918.66;4690195;30;20272;-87
2022/01/26 04:27:16;;;;;;;22.15;13.63;;;3.50;78.60;;;2.26;65.14;95920.75;4689922;30;20220;-88
2022/01/26 04:29:46;;;;;;;18.25;12.13;;;3.40;78.50;;;2.30;65.08;95916.19;4701788;30;20729;-88
2022/01/26 04:32:15;;;;;;;23.15;12.57;;;3.50;78.60;;;2.40;65.01;95930.06;4701207;30;20312;-87
2022/01/26 04:34:45;;;;;;;18.88;11.00;;;3.40;78.60;;;2.42;65.03;95933.38;4687406;30;20252;-87
2022/01/26 04:39:54;;;;;;;19.15;11.93;;;3.40;78.70;;;2.45;65.04;95933.13;4702011;30;20254;-88
2022/01/26 04:42:49;;;;;;;21.17;12.32;;;3.40;78.60;;;2.41;65.13;95929.13;4674573;30;20620;-87
2022/01/26 04:45:18;;;;;;;22.13;12.20;;;3.50;78.70;;;2.33;65.23;95919.34;4687469;30;20735;-88
2022/01/26 04:47:45;;;;;;;22.17;12.07;;;3.40;78.60;;;2.33;65.05;95921.94;4673343;30;20288;-88
2022/01/26 04:50:14;;;;;;;21.95;13.23;;;3.50;78.70;;;2.38;65.41;95935.38;4700434;30;20252;-88
2022/01/26 04:52:45;;;;;;;21.60;13.02;;;3.50;78.60;;;2.33;65.13;95924.53;4673032;30;20244;-87
2022/01/26 04:55:14;;;;;;;23.95;14.13;;;3.50;78.60;;;2.24;65.18;95925.22;4686997;30;20602;-87
2022/01/26 04:57:41;;;;;;;23.90;13.93;;;3.50;78.60;;;2.31;65.30;95943.72;4687041;30;20217;-87
2022/01/26 05:00:16;;;;;;;20.15;12.30;;;3.50;78.60;;;2.28;64.81;95925.81;4691400;30;20252;-88
2022/01/26 05:02:43;;;;;;;23.08;13.05;;;3.40;78.60;;;2.28;65.44;95938.75;4685806;30;20263;-88
2022/01/26 05:05:12;;;;;;;21.45;12.77;;;3.40;78.60;;;2.22;65.27;95932.25;4700621;30;20240;-87
2022/01/26 05:07:40;;;;;;;23.00;12.82;;;3.40;78.70;;;2.25;65.34;95942.41;4667969;30;20304;-88
2022/01/26 05:10:09;;;;;;;22.48;13.98;;;3.40;78.70;;;2.20;65.47;95936.75;4682263;30;20267;-89
2022/01/26 05:12:38;;;;;;;23.52;13.43;;;3.40;78.70;;;2.25;65.41;95945.00;4697139;30;20308;-89
2022/01/26 05:15:07;;;;;;;25.67;14.43;;;3.40;78.70;;;2.14;65.42;95926.84;4681962;30;20244;-88
2022/01/26 05:17:36;;;;;;;23.80;13.13;;;3.40;78.70;;;2.19;65.68;95943.69;4682319;30;20300;-88
2022/01/26 05:20:08;;;;;;;20.77;13.07;;;3.40;78.70;;;2.18;65.59;95942.03;4698199;30;20720;-88
2022/01/26 05:22:39;;;;;;;23.10;12.68;;;3.30;78.60;;;2.17;65.62;95929.19;4683991;30;20423;-88
2022/01/26 05:25:07;;;;;;;21.92;13.20;;;3.30;78.70;;;2.14;65.39;95930.25;4696228;30;20232;-87
2022/01/26 05:27:34;;;;;;;21.13;11.30;;;3.30;78.80;;;2.21;65.41;95944.41;4668138;30;20685;-88
2022/01/26 05:30:04;;;;;;;22.58;13.05;;;3.30;78.70;;;2.17;65.47;95937.81;4682307;30;20271;-89
2022/01/26 05:32:32;;;;;;;24.42;13.27;;;3.30;78.80;;;2.16;65.56;95936.16;4667529;30;20244;-87
2022/01/26 05:35:00;;;;;;;22.40;12.60;;;3.30;78.70;;;2.19;65.49;95948.03;4682156;30;20244;-87
2022/01/26 05:37:28;;;;;;;20.55;12.48;;;3.30;78.80;;;2.14;65.73;95935.44;4681772;30;20300;-88
2022/01/26 05:39:59;;;;;;;21.13;12.40;;;3.20;79.30;;;2.15;65.88;95934.50;4682461;30;20734;-89
2022/01/26 05:42:27;;;;;;;22.08;12.52;;;3.30;78.90;;;2.13;65.46;95927.78;4667879;30;20237;-89
2022/01/26 05:45:00;;;;;;;21.15;11.98;;;3.40;78.90;;;2.09;65.65;95916.84;4682029;30;20260;-88
2022/01/26 05:47:31;;;;;;;21.45;12.27;;;3.30;78.80;;;2.14;65.49;95929.44;4678956;30;20221;-89
2022/01/26 05:50:01;;;;;;;21.25;13.15;;;3.30;78.80;;;2.13;65.58;95928.59;4696233;30;20233;-88
2022/01/26 05:52:29;;;;;;;22.45;12.57;;;3.20;78.80;;;2.12;65.49;95923.56;4684977;30;20212;-89
2022/01/26 05:54:57;;;;;;;22.77;12.82;;;3.30;78.80;;;2.15;65.50;95934.50;4699825;30;20244;-88
2022/01/26 05:57:26;;;;;;;24.00;12.15;;;3.30;78.80;;;2.06;65.63;95927.41;4700233;30;20221;-89
2022/01/26 05:59:55;;;;;;;21.27;11.05;;;3.20;78.70;;;2.15;65.72;95936.25;4686597;30;20236;-89
2022/01/26 06:02:23;;;;;;;22.08;13.00;;;3.30;78.80;;;2.10;65.91;95921.09;4685923;30;20217;-88
2022/01/26 06:04:51;;;;;;;23.50;12.27;;;3.20;78.80;;;2.03;65.45;95927.66;4685650;30;20708;-89
2022/01/26 06:07:19;;;;;;;22.35;12.40;;;3.30;78.80;;;2.09;65.62;95929.78;4686280;30;20240;-89
2022/01/26 06:09:47;;;;;;;20.30;11.65;;;3.20;78.80;;;2.06;65.61;95924.81;4700611;30;20237;-89
2022/01/26 06:12:16;;;;;;;20.45;11.85;;;3.20;78.80;;;2.04;65.31;95926.72;4699939;30;20224;-89
2022/01/26 06:14:44;;;;;;;21.15;12.40;;;3.30;78.80;;;2.08;65.49;95938.47;4671765;30;20303;-89
2022/01/26 06:17:12;;;;;;;20.33;11.65;;;3.20;78.80;;;2.10;65.55;95938.34;4686167;30;20301;-89
2022/01/26 06:19:40;;;;;;;18.80;11.38;;;3.20;78.70;;;2.01;65.41;95935.50;4700148;30;20323;-89
2022/01/26 06:22:08;;;;;;;20.85;11.77;;;3.20;78.80;;;2.02;65.66;95931.16;4685666;30;20224;-89
2022/01/26 06:24:36;;;;;;;19.48;11.63;;;3.20;78.70;;;2.00;65.70;95935.63;4700022;30;20789;-88
2022/01/26 06:27:05;;;;;;;19.85;11.48;;;3.20;78.70;;;2.04;65.59;95940.47;4670726;30;20209;-89
2022/01/26 06:29:33;;;;;;;20.33;11.93;;;3.20;78.70;;;2.06;65.66;95938.59;4685409;30;20254;-88
2022/01/26 06:32:00;;;;;;;21.13;11.27;;;3.20;78.70;;;2.01;65.86;95926.94;4699743;30;20553;-88
2022/01/26 06:34:29;;;;;;;22.75;11.65;;;3.20;78.80;;;2.00;65.76;95928.72;4699712;30;20720;-90
2022/01/26 06:36:56;;;;;;;20.55;10.90;;;3.20;78.80;;;2.04;65.57;95930.13;4685397;30;20233;-89
2022/01/26 06:39:24;;;;;;;19.25;10.30;;;3.20;78.80;;;1.99;65.40;95927.06;4685308;30;20245;-88
2022/01/26 06:41:56;;;;;;;19.20;11.98;;;3.20;78.80;;;2.03;65.48;95938.00;4685099;30;20217;-89
2022/01/26 06:44:35;;;;;;;19.38;10.98;;;3.20;78.80;;;2.07;65.51;95945.41;4685247;30;20239;-88
2022/01/26 06:49:39;;;;;;;17.42;10.20;;;3.20;78.80;;;2.07;65.55;95942.00;4685870;30;20243;-89
2022/01/26 06:52:07;;;;;;;18.40;11.00;;;3.20;78.80;;;2.08;65.83;95941.88;4671045;30;20291;-88
2022/01/26 06:54:35;;;;;;;19.60;11.93;;;3.20;78.90;;;2.07;65.69;95948.00;4670920;30;20253;-89
2022/01/26 06:57:03;;;;;;;16.92;10.80;;;3.20;78.90;;;2.04;65.66;95929.31;4699638;30;20221;-88
2022/01/26 06:59:31;;;;;;;15.80;10.32;;;3.20;78.80;;;2.06;65.67;95935.16;4699625;30;20255;-88
2022/01/26 07:01:59;;;;;;;16.60;10.07;;;3.20;78.90;;;2.10;65.46;95938.34;4684872;30;20720;-89
2022/01/26 07:04:27;;;;;;;18.45;10.32;;;3.20;78.90;;;2.11;65.56;95942.59;4671145;30;20240;-88
2022/01/26 07:06:55;;;;;;;21.10;11.90;;;3.10;78.80;;;2.06;65.58;95933.44;4670950;30;20223;-89
2022/01/26 07:09:23;;;;;;;17.00;10.60;;;3.20;78.90;;;2.14;65.40;95945.78;4684692;30;20237;-89
2022/01/26 07:11:51;;;;;;;18.70;10.18;;;3.20;78.90;;;2.14;65.69;95937.22;4684956;30;20228;-88
2022/01/26 07:19:44;;;;;;;19.13;10.30;;;3.20;79.00;;;2.08;65.45;95928.94;4670730;30;20253;-89
2022/01/26 07:20:55;;;;;;;17.25;9.77;;;3.30;78.70;;;2.02;65.07;95929.41;4672695;30;20241;-88
2022/01/26 07:22:59;;;;;;;18.15;9.63;;;3.20;78.70;;;2.00;65.44;95926.13;4699188;30;20263;-89
2022/01/26 07:25:26;;;;;;;16.63;10.95;;;3.20;78.70;;;2.01;65.32;95924.34;4684867;30;20251;-88
2022/01/26 07:27:56;;;;;;;16.67;9.82;;;3.20;78.70;;;2.03;65.48;95922.47;4684860;30;20369;-88
2022/01/26 07:30:25;;;;;;;18.35;9.60;;;3.20;78.70;;;2.07;65.22;95927.28;4684606;30;20237;-89
2022/01/26 07:32:53;;;;;;;18.65;11.40;;;3.20;78.70;;;2.11;65.48;95932.25;4698950;30;20213;-88
2022/01/26 07:35:21;;;;;;;19.30;10.90;;;3.20;78.70;;;2.12;65.31;95931.31;4670060;30;20263;-88
2022/01/26 07:37:50;;;;;;;19.45;11.43;;;3.20;78.70;;;2.08;65.37;95926.34;4684602;30;20220;-88
2022/01/26 07:40:18;;;;;;;23.27;11.75;;;3.30;78.90;;;2.11;65.51;95925.28;4698774;30;20323;-89
2022/01/26 07:42:47;;;;;;;17.58;11.27;;;3.20;78.80;;;2.09;65.57;95932.38;4670830;30;20255;-89
2022/01/26 07:45:17;;;;;;;15.65;9.02;;;3.30;78.80;;;2.20;65.33;95945.31;4698727;30;20272;-88
2022/01/26 07:47:46;;;;;;;14.35;9.45;;;3.20;78.70;;;2.14;65.33;95926.84;4670586;30;20220;-88
2022/01/26 07:50:15;;;;;;;14.90;9.40;;;3.30;78.90;;;2.28;65.15;95946.53;4684588;30;20764;-88
2022/01/26 07:52:43;;;;;;;17.35;10.60;;;3.30;78.90;;;2.22;65.34;95927.09;4670511;30;20216;-88
2022/01/26 07:55:16;;;;;;;18.35;10.70;;;3.30;78.90;;;2.34;65.55;95939.09;4699390;30;20332;-88
2022/01/26 07:57:44;;;;;;;14.70;9.50;;;3.30;79.00;;;2.28;65.40;95920.63;4684809;30;20699;-89
2022/01/26 08:00:13;;;;;;;17.58;10.32;;;3.30;79.10;;;2.40;65.12;95940.41;4670300;30;20299;-87
2022/01/26 08:02:44;;;;;;;17.55;10.60;;;3.30;79.00;;;2.35;65.55;95924.41;4683983;30;20204;-89
2022/01/26 08:05:13;;;;;;;16.92;9.90;;;3.40;78.90;;;2.45;65.15;95948.66;4697794;30;20306;-88
2022/01/26 08:07:41;;;;;;;17.13;10.50;;;3.50;79.00;;;2.43;65.22;95937.63;4683862;30;20312;-88
2022/01/26 08:10:11;;;;;;;19.20;10.70;;;3.40;78.90;;;2.39;65.16;95925.81;4679475;30;20237;-88
2022/01/26 08:12:39;;;;;;;20.05;11.25;;;3.40;78.80;;;2.44;65.39;95928.06;4676520;30;20216;-87
2022/01/26 08:15:26;;;;;;;20.15;11.55;;;3.50;78.90;;;2.43;65.29;95932.44;4693339;30;20244;-88
2022/01/26 08:17:58;;;;;;;20.67;10.93;;;3.50;78.90;;;2.38;65.15;95919.84;4683654;30;20228;-88
2022/01/26 08:20:26;;;;;;;17.27;10.98;;;3.50;78.90;;;2.38;65.44;95919.84;4683715;30;20280;-88
2022/01/26 08:22:56;;;;;;;19.25;11.52;;;3.50;79.70;;;2.42;65.08;95912.66;4683928;30;20576;-88
2022/01/26 08:25:24;;;;;;;18.98;11.10;;;3.50;78.80;;;2.43;65.49;95911.72;4684083;30;20716;-89
2022/01/26 08:28:03;;;;;;;19.88;11.70;;;3.50;78.80;;;2.49;65.47;95920.78;4683684;30;20275;-89
2022/01/26 08:30:36;;;;;;;20.63;12.80;;;3.50;78.80;;;2.48;65.39;95916.53;4670044;30;20235;-88
2022/01/26 08:33:06;;;;;;;20.67;12.05;;;3.50;78.90;;;2.50;65.23;95919.84;4686462;30;20673;-89
2022/01/26 08:35:35;;;;;;;23.10;13.07;;;3.60;78.90;;;2.56;65.39;95925.38;4697919;30;20302;-88
2022/01/26 08:38:03;;;;;;;24.58;12.55;;;3.60;78.90;;;2.54;65.07;95924.66;4683314;30;20244;-88
2022/01/26 08:40:33;;;;;;;24.02;14.02;;;3.60;78.90;;;2.50;65.12;95917.25;4713685;30;20248;-89
2022/01/26 08:43:02;;;;;;;23.25;12.80;;;3.60;78.80;;;2.51;65.21;95917.13;4687436;30;20303;-88
2022/01/26 08:45:31;;;;;;;24.73;14.27;;;3.60;78.80;;;2.50;64.99;95909.47;4670263;30;20760;-89
2022/01/26 08:47:58;;;;;;;23.60;13.52;;;3.70;78.90;;;2.52;65.17;95910.19;4683828;30;20665;-88
2022/01/26 08:50:26;;;;;;;27.73;15.38;;;3.60;78.80;;;2.51;65.00;95918.91;4684628;30;20236;-88
2022/01/26 08:52:55;;;;;;;26.38;15.27;;;3.60;78.70;;;2.51;65.20;95913.72;4686128;30;20224;-88
2022/01/26 08:55:23;;;;;;;26.20;13.07;;;3.60;78.70;;;2.54;65.40;95921.25;4694237;30;20252;-88
2022/01/26 08:57:51;;;;;;;22.98;12.90;;;3.60;78.80;;;2.58;65.11;95919.28;4686767;30;20302;-88
2022/01/26 09:00:19;;;;;;;23.15;13.57;;;3.60;78.80;;;2.66;65.00;95935.88;4672467;30;20790;-88
2022/01/26 09:02:47;;;;;;;20.83;12.85;;;3.70;79.00;;;2.69;64.74;95934.81;4673350;30;20249;-88
2022/01/26 09:05:15;;;;;;;24.27;14.10;;;3.70;79.00;;;2.69;64.99;95943.38;4672993;30;20260;-87
2022/01/26 09:07:45;;;;;;;24.15;13.73;;;3.70;79.70;;;2.69;64.63;95939.97;4701287;30;20264;-89
2022/01/26 09:10:12;;;;;;;22.38;13.57;;;3.70;78.80;;;2.67;64.74;95934.09;4671653;30;20243;-88
2022/01/26 09:12:43;;;;;;;22.75;13.30;;;3.80;78.80;;;2.67;64.60;95937.53;4672238;30;20216;-87
2022/01/26 09:15:11;;;;;;;22.48;13.27;;;3.80;78.70;;;2.64;64.57;95942.09;4685924;30;20347;-87
2022/01/26 09:17:42;;;;;;;22.58;13.70;;;3.80;78.60;;;2.64;64.20;95942.91;4687176;30;20571;-89
2022/01/26 09:20:10;;;;;;;22.42;13.68;;;3.80;78.40;;;2.71;64.30;95956.22;4686231;30;20240;-89
2022/01/26 09:22:39;;;;;;;19.55;12.05;;;3.70;78.40;;;2.63;64.43;95940.44;4687028;30;20248;-90
2022/01/26 09:25:07;;;;;;;20.05;11.68;;;3.80;78.40;;;2.70;64.45;95952.81;4671706;30;20743;-88
2022/01/26 09:27:36;;;;;;;20.58;12.32;;;3.70;78.40;;;2.69;64.35;95939.97;4686396;30;20221;-88
2022/01/26 09:30:04;;;;;;;18.90;12.20;;;3.80;78.40;;;2.69;64.65;95935.63;4686755;30;20275;-89
2022/01/26 09:32:36;;;;;;;18.77;12.13;;;3.80;78.50;;;2.80;64.59;95944.34;4686488;30;20256;-88
2022/01/26 09:35:09;;;;;;;18.23;11.85;;;3.80;78.50;;;2.84;64.19;95943.97;4700518;30;20245;-89
2022/01/26 09:37:37;;;;;;;21.23;11.75;;;3.80;78.50;;;2.83;64.32;95944.09;4685988;30;20219;-88
2022/01/26 09:40:06;;;;;;;22.73;13.55;;;3.80;78.50;;;2.78;63.68;95943.63;4685295;30;20359;-89
2022/01/26 09:42:36;;;;;;;21.70;12.85;;;3.80;78.20;;;2.90;64.12;95952.22;4668682;30;20222;-89
2022/01/26 09:45:07;;;;;;;19.33;11.65;;;3.90;78.30;;;2.89;64.08;95946.22;4671838;30;20256;-89
2022/01/26 09:47:39;;;;;;;17.60;11.02;;;3.80;78.20;;;2.86;64.22;95931.72;4685374;30;20600;-88
2022/01/26 09:50:27;;;;;;;19.13;11.13;;;3.90;78.40;;;2.96;64.05;95951.75;4685772;30;20248;-92
2022/01/26 09:52:56;;;;;;;18.98;11.30;;;3.90;78.30;;;2.97;64.21;95949.03;4700749;30;20220;-90
2022/01/26 09:55:25;;;;;;;18.75;10.02;;;3.90;78.30;;;2.98;64.32;95945.50;4672021;30;20252;-89
2022/01/26 09:57:58;;;;;;;17.10;10.90;;;4.00;79.20;;;3.09;64.28;95951.59;4684973;30;20216;-88
2022/01/26 10:00:28;;;;;;;21.33;12.95;;;4.00;78.30;;;3.07;63.62;95945.75;4686306;30;20245;-89
2022/01/26 10:03:01;;;;;;;18.45;12.00;;;4.00;78.30;;;3.08;64.13;95931.84;4685024;30;20232;-88
2022/01/26 10:05:45;;;;;;;19.92;11.45;;;4.00;78.20;;;3.06;64.12;95926.75;4685635;30;20260;-87
2022/01/26 10:08:40;;;;;;;19.45;12.10;;;4.10;78.10;;;3.09;64.00;95928.28;4685916;30;20213;-87
2022/01/26 10:19:42;;;;;;;17.70;10.65;;;4.20;77.90;;;3.09;63.85;95916.16;4684729;30;20315;-88
2022/01/26 10:22:11;;;;;;;19.27;11.48;;;4.10;77.90;;;3.10;63.66;95917.81;4671464;30;20213;-89
2022/01/26 10:24:38;;;;;;;18.17;11.73;;;4.20;78.00;;;3.17;63.80;95924.16;4685137;30;20243;-88
2022/01/26 10:27:08;;;;;;;20.30;11.80;;;4.10;77.90;;;3.14;63.64;95908.84;4685291;30;20283;-87
2022/01/26 10:29:36;;;;;;;17.88;10.10;;;4.20;77.90;;;3.18;63.59;95907.66;4699515;30;20236;-88
2022/01/26 10:32:12;;;;;;;14.95;9.73;;;4.10;78.00;;;3.20;63.73;95897.97;4684919;30;20224;-89
2022/01/26 10:34:40;;;;;;;17.30;10.77;;;4.20;78.00;;;3.24;63.64;95898.56;4685043;30;20612;-88
2022/01/26 10:37:09;;;;;;;18.52;11.38;;;4.20;78.10;;;3.31;63.70;95902.31;4685330;30;20251;-88
2022/01/26 10:39:38;;;;;;;17.98;10.93;;;4.20;78.00;;;3.37;63.58;95903.63;4670630;30;20263;-88
2022/01/26 10:42:10;;;;;;;16.73;10.23;;;4.20;78.70;;;3.34;63.37;95893.47;4685226;30;20213;-89
2022/01/26 10:44:50;;;;;;;19.20;11.13;;;4.30;78.00;;;3.38;63.39;95897.47;4684773;30;20735;-88
2022/01/26 10:47:34;;;;;;;18.55;11.60;;;4.30;77.80;;;3.33;62.81;95892.66;4710313;30;20323;-88
2022/01/26 10:53:12;;;;;;;18.23;11.07;;;4.30;77.50;;;3.26;62.55;95885.47;4684781;30;20279;-88
2022/01/26 10:55:40;;;;;;;19.92;11.80;;;4.30;77.40;;;3.29;62.55;95900.81;4670283;30;20252;-88
2022/01/26 10:58:09;;;;;;;20.60;12.45;;;4.30;77.40;;;3.20;62.16;95886.81;4684756;30;20220;-88
2022/01/26 11:00:43;;;;;;;18.67;11.52;;;4.30;77.10;;;3.21;62.70;95883.28;4671085;30;20229;-88
2022/01/26 11:03:11;;;;;;;19.05;11.40;;;4.30;77.20;;;3.18;62.59;95876.53;4684646;30;20205;-89
2022/01/26 11:05:39;;;;;;;20.30;11.52;;;4.20;77.20;;;3.13;62.26;95870.91;4684920;30;20676;-89
2022/01/26 11:08:09;;;;;;;17.20;10.25;;;4.30;77.10;;;3.18;62.53;95879.13;4699587;30;20221;-88
2022/01/26 11:10:39;;;;;;;19.02;11.05;;;4.30;77.10;;;3.11;62.73;95870.19;4670855;30;20237;-89
2022/01/26 11:13:34;;;;;;;17.33;10.48;;;4.20;77.10;;;3.09;62.16;95869.50;4686178;30;20221;-89
2022/01/26 11:16:11;;;;;;;13.32;8.50;;;4.30;77.10;;;3.22;63.02;95892.66;4684675;30;20248;-88
2022/01/26 11:18:54;;;;;;;15.65;9.73;;;4.20;77.10;;;3.12;61.79;95873.63;4684407;30;20208;-89
2022/01/26 11:21:33;;;;;;;17.42;10.23;;;4.30;76.70;;;3.14;62.17;95875.16;4684243;30;20208;-89
2022/01/26 11:24:08;;;;;;;13.88;8.52;;;4.20;76.90;;;3.17;62.53;95869.72;4684244;30;20239;-89
2022/01/26 11:26:38;;;;;;;14.15;8.40;;;4.20;77.10;;;3.20;61.80;95860.88;4698748;30;20270;-88
2022/01/26 11:29:25;;;;;;;13.65;8.63;;;4.20;77.00;;;3.24;61.68;95864.88;4684171;30;20709;-89
2022/01/26 11:32:06;;;;;;;11.98;8.82;;;4.20;76.70;;;3.16;61.31;95855.13;4684280;30;20307;-89
2022/01/26 11:34:35;;;;;;;13.02;8.65;;;4.30;76.50;;;3.18;61.84;95848.03;4670107;30;20613;-88
2022/01/26 11:37:09;;;;;;;12.52;7.60;;;4.30;76.70;;;3.30;62.04;95859.19;4684549;30;20677;-89
2022/01/26 11:45:16;;;;;;;13.35;8.20;;;4.30;76.60;;;3.32;61.48;95843.50;4667091;30;20241;-90
2022/01/26 11:48:09;;;;;;;11.57;7.97;;;4.30;76.30;;;3.26;61.10;95823.25;4696984;30;20320;-90
2022/01/26 11:50:42;;;;;;;12.70;8.73;;;4.30;76.20;;;3.27;61.41;95817.97;4683187;30;20331;-89
2022/01/26 11:53:15;;;;;;;11.82;8.60;;;4.30;76.30;;;3.35;61.72;95823.31;4683638;30;20226;-88
2022/01/26 11:55:49;;;;;;;11.73;8.07;;;4.30;76.50;;;3.45;61.91;95828.59;4697964;30;20251;-89
2022/01/26 11:58:37;;;;;;;11.90;7.43;;;4.30;76.60;;;3.42;61.79;95818.47;4685766;30;20219;-90
2022/01/26 12:03:57;;;;;;;11.77;7.65;;;4.40;76.80;;;3.61;61.91;95832.53;4698558;30;20267;-89
2022/01/26 12:06:35;;;;;;;10.32;6.93;;;4.40;76.90;;;3.58;61.86;95815.44;4678202;30;20315;-90
2022/01/26 12:09:06;;;;;;;13.68;8.25;;;4.50;76.90;;;3.62;61.92;95819.44;4680952;30;20324;-89
2022/01/26 12:11:36;;;;;;;11.93;8.38;;;4.50;76.70;;;3.59;61.41;95814.50;4684141;30;20221;-89
2022/01/26 12:14:12;;;;;;;14.50;8.18;;;4.60;76.80;;;3.64;61.62;95824.50;4670247;30;20299;-89
2022/01/26 12:16:45;;;;;;;10.35;7.40;;;4.60;76.70;;;3.70;61.67;95834.38;4684416;30;20212;-89
2022/01/26 12:19:32;;;;;;;11.45;7.63;;;4.60;76.70;;;3.63;61.37;95809.91;4690786;30;20327;-89
2022/01/26 12:36:52;;;;;;;12.63;8.27;;;4.60;75.10;;;3.28;59.43;95823.97;4687129;30;20240;-87
2022/01/26 12:41:14;;;;;;;13.95;8.75;;;4.50;75.00;;;3.30;60.08;95825.47;4715390;30;20667;-88
2022/01/26 12:42:13;;;;;;;13.88;8.05;;;4.50;75.10;;;3.21;60.07;95821.06;4690103;30;20216;-89
2022/01/26 12:44:41;;;;;;;14.82;9.00;;;4.40;75.30;;;3.22;59.33;95811.50;4686859;30;20724;-89
2022/01/26 12:47:10;;;;;;;12.90;8.85;;;4.40;75.10;;;3.18;59.50;95805.72;4688370;30;20255;-89
2022/01/26 12:49:40;;;;;;;14.45;8.70;;;4.50;75.10;;;3.28;60.01;95823.97;4705216;30;20542;-89
2022/01/26 12:52:11;;;;;;;13.13;9.10;;;4.30;75.20;;;3.24;59.54;95814.78;4687273;30;20228;-89